createdAt,value
2018-02-16T00:00:11.395Z,84.09
2018-02-16T00:01:11.361Z,84.00
2018-02-16T00:02:11.339Z,84.47
2018-02-16T00:03:11.325Z,84.38
2018-02-16T00:04:11.320Z,84.42
2018-02-16T00:05:11.305Z,84.61
2018-02-16T00:06:11.291Z,84.33
2018-02-16T00:07:11.280Z,84.61
2018-02-16T00:08:11.269Z,84.81
2018-02-16T00:09:11.258Z,84.61
2018-02-16T00:10:11.247Z,84.61
2018-02-16T00:11:11.236Z,84.52
2018-02-16T00:12:11.247Z,85.38
2018-02-16T00:13:11.213Z,85.19
2018-02-16T00:14:11.202Z,85.28
2018-02-16T00:15:11.183Z,85.19
2018-02-16T00:16:11.178Z,85.28
2018-02-16T00:17:11.161Z,85.09
2018-02-16T00:18:11.155Z,85.38
2018-02-16T00:19:11.144Z,85.00
2018-02-16T00:20:11.125Z,85.57
2018-02-16T00:21:11.117Z,85.28
2018-02-16T00:22:11.104Z,85.75
2018-02-16T00:23:11.106Z,86.04
2018-02-16T00:24:11.083Z,86.04
2018-02-16T00:25:11.079Z,85.85
2018-02-16T00:26:11.058Z,85.94
2018-02-16T00:27:11.058Z,85.85
2018-02-16T00:28:11.034Z,85.94
2018-02-16T00:29:11.036Z,86.51
2018-02-16T00:30:11.011Z,86.51
2018-02-16T00:31:10.995Z,86.13
2018-02-16T00:32:10.999Z,86.32
2018-02-16T00:33:10.988Z,87.08
2018-02-16T00:34:10.971Z,86.79
2018-02-16T00:35:10.948Z,86.89
2018-02-16T00:36:10.935Z,86.47
2018-02-16T00:37:10.929Z,87.27
2018-02-16T00:38:10.913Z,86.89
2018-02-16T00:39:10.914Z,87.27
2018-02-16T00:40:10.903Z,87.27
2018-02-16T00:41:10.878Z,87.46
2018-02-16T00:42:10.862Z,87.36
2018-02-16T00:43:10.848Z,87.46
2018-02-16T00:44:10.849Z,87.55
2018-02-16T00:45:10.829Z,87.84
2018-02-16T00:46:10.819Z,87.46
2018-02-16T00:47:10.802Z,88.21
2018-02-16T00:48:10.792Z,88.02
2018-02-16T00:49:10.785Z,87.93
2018-02-16T00:50:10.769Z,88.59
2018-02-16T00:51:10.755Z,88.31
2018-02-16T00:52:10.740Z,88.59
2018-02-16T00:53:10.754Z,88.31
2018-02-16T00:54:10.720Z,88.21
2018-02-16T00:55:10.730Z,88.31
2018-02-16T00:56:10.703Z,88.21
2018-02-16T00:57:10.682Z,88.21
2018-02-16T00:58:10.682Z,88.12
2018-02-16T00:59:10.654Z,88.49
2018-02-16T01:00:10.648Z,88.12
2018-02-16T01:01:10.638Z,88.59
2018-02-16T01:02:10.616Z,88.40
2018-02-16T01:03:10.610Z,88.59
2018-02-16T01:04:10.624Z,88.78
2018-02-16T01:05:10.586Z,88.31
2018-02-16T01:06:10.578Z,88.59
2018-02-16T01:07:10.559Z,88.87
2018-02-16T01:08:10.545Z,88.83
2018-02-16T01:09:10.550Z,88.78
2018-02-16T01:10:10.518Z,88.74
2018-02-16T01:11:10.505Z,88.64
2018-02-16T01:12:10.518Z,88.74
2018-02-16T01:13:10.486Z,88.55
2018-02-16T01:14:10.480Z,88.64
2018-02-16T01:15:10.461Z,88.83
2018-02-16T01:16:10.443Z,89.06
2018-02-16T01:17:10.440Z,89.02
2018-02-16T01:18:10.420Z,89.02
2018-02-16T01:19:10.430Z,88.74
2018-02-16T01:20:10.417Z,89.12
2018-02-16T01:21:10.395Z,89.02
2018-02-16T01:22:10.386Z,89.02
2018-02-16T01:23:10.364Z,88.93
2018-02-16T01:24:10.344Z,89.02
2018-02-16T01:25:10.349Z,88.93
2018-02-16T01:26:10.336Z,89.02
2018-02-16T01:27:10.308Z,88.93
2018-02-16T01:28:10.342Z,89.31
2018-02-16T01:29:10.310Z,88.83
2018-02-16T01:30:10.289Z,88.93
2018-02-16T01:31:10.262Z,88.55
2018-02-16T01:32:10.247Z,88.83
2018-02-16T01:33:10.256Z,88.74
2018-02-16T01:34:10.266Z,88.74
2018-02-16T01:35:10.227Z,88.74
2018-02-16T01:36:10.204Z,88.83
2018-02-16T01:37:10.188Z,88.83
2018-02-16T01:38:10.182Z,88.74
2018-02-16T01:39:10.183Z,88.74
2018-02-16T01:40:10.148Z,88.64
2018-02-16T01:41:10.159Z,88.64
2018-02-16T01:42:10.127Z,88.74
2018-02-16T01:43:10.144Z,88.64
2018-02-16T01:44:10.102Z,88.64
2018-02-16T01:45:10.120Z,88.64
2018-02-16T01:46:10.105Z,88.64
2018-02-16T01:47:10.060Z,88.64
2018-02-16T01:48:10.042Z,88.93
2018-02-16T01:49:10.053Z,88.64
2018-02-16T01:50:10.034Z,88.74
2018-02-16T01:51:10.011Z,88.74
2018-02-16T01:52:09.994Z,88.74
2018-02-16T01:53:09.981Z,89.40
2018-02-16T01:54:10.018Z,88.74
2018-02-16T01:55:09.989Z,89.31
2018-02-16T01:56:09.987Z,88.83
2018-02-16T01:57:09.937Z,88.74
2018-02-16T01:58:09.918Z,89.31
2018-02-16T01:59:09.921Z,88.93
2018-02-16T02:00:09.904Z,88.83
2018-02-16T02:01:09.881Z,89.50
2018-02-16T02:02:09.932Z,88.93
2018-02-16T02:03:09.855Z,89.02
2018-02-16T02:04:09.840Z,88.93
2018-02-16T02:05:09.852Z,88.93
2018-02-16T02:06:09.836Z,89.12
2018-02-16T02:07:09.815Z,88.93
2018-02-16T02:08:09.791Z,88.64
2018-02-16T02:09:09.775Z,89.02
2018-02-16T02:10:09.793Z,89.21
2018-02-16T02:11:09.779Z,89.02
2018-02-16T02:12:09.741Z,88.83
2018-02-16T02:13:09.762Z,89.02
2018-02-16T02:14:09.729Z,88.93
2018-02-16T02:15:09.705Z,88.93
2018-02-16T02:16:09.720Z,89.02
2018-02-16T02:17:09.680Z,88.93
2018-02-16T02:18:09.690Z,88.55
2018-02-16T02:19:09.651Z,88.45
2018-02-16T02:20:09.649Z,88.45
2018-02-16T02:21:09.656Z,88.74
2018-02-16T02:22:09.656Z,88.64
2018-02-16T02:23:09.608Z,88.64
2018-02-16T02:24:09.593Z,88.83
2018-02-16T02:25:09.634Z,88.93
2018-02-16T02:26:09.578Z,88.83
2018-02-16T02:27:09.544Z,88.83
2018-02-16T02:28:09.586Z,88.64
2018-02-16T02:29:09.522Z,88.83
2018-02-16T02:30:09.554Z,88.83
2018-02-16T02:31:09.605Z,88.83
2018-02-16T02:32:09.499Z,88.55
2018-02-16T02:33:09.472Z,88.45
2018-02-16T02:34:09.469Z,88.93
2018-02-16T02:35:09.445Z,88.45
2018-02-16T02:36:09.448Z,89.02
2018-02-16T02:37:09.450Z,88.55
2018-02-16T02:38:09.441Z,88.74
2018-02-16T02:39:09.406Z,89.12
2018-02-16T02:40:09.378Z,88.93
2018-02-16T02:41:09.390Z,88.74
2018-02-16T02:42:09.374Z,88.36
2018-02-16T02:43:09.338Z,88.93
2018-02-16T02:44:09.329Z,88.83
2018-02-16T02:45:09.342Z,88.83
2018-02-16T02:46:09.304Z,88.74
2018-02-16T02:47:09.289Z,88.64
2018-02-16T02:48:09.286Z,88.93
2018-02-16T02:49:09.287Z,88.83
2018-02-16T02:50:09.276Z,88.93
2018-02-16T02:51:09.236Z,88.45
2018-02-16T02:52:09.288Z,88.36
2018-02-16T02:53:09.228Z,88.74
2018-02-16T02:54:09.222Z,88.26
2018-02-16T02:55:09.188Z,88.26
2018-02-16T02:56:09.168Z,88.26
2018-02-16T02:57:09.226Z,88.17
2018-02-16T02:58:09.191Z,88.17
2018-02-16T02:59:09.140Z,88.36
2018-02-16T03:00:09.125Z,88.55
2018-02-16T03:01:09.108Z,88.36
2018-02-16T03:02:09.127Z,88.36
2018-02-16T03:03:09.093Z,88.64
2018-02-16T03:04:09.074Z,88.55
2018-02-16T03:05:09.068Z,88.26
2018-02-16T03:06:09.045Z,88.17
2018-02-16T03:07:09.044Z,88.07
2018-02-16T03:08:09.039Z,88.36
2018-02-16T03:09:09.000Z,88.17
2018-02-16T03:10:08.993Z,88.26
2018-02-16T03:11:08.986Z,88.36
2018-02-16T03:12:08.969Z,88.45
2018-02-16T03:13:08.962Z,88.45
2018-02-16T03:14:08.961Z,88.26
2018-02-16T03:15:08.925Z,88.36
2018-02-16T03:16:08.913Z,88.36
2018-02-16T03:17:08.898Z,88.26
2018-02-16T03:18:08.898Z,88.26
2018-02-16T03:19:08.886Z,88.26
2018-02-16T03:20:08.862Z,88.17
2018-02-16T03:21:08.868Z,88.45
2018-02-16T03:22:08.832Z,88.36
2018-02-16T03:23:08.824Z,88.36
2018-02-16T03:24:08.814Z,88.36
2018-02-16T03:25:08.792Z,88.45
2018-02-16T03:26:08.782Z,88.55
2018-02-16T03:27:08.784Z,88.55
2018-02-16T03:28:08.774Z,88.45
2018-02-16T03:29:08.747Z,88.26
2018-02-16T03:30:08.731Z,87.98
2018-02-16T03:31:08.720Z,88.64
2018-02-16T03:32:08.732Z,87.79
2018-02-16T03:33:08.909Z,87.88
2018-02-16T03:34:08.692Z,87.79
2018-02-16T03:35:08.665Z,87.70
2018-02-16T03:36:08.654Z,87.88
2018-02-16T03:37:08.645Z,87.88
2018-02-16T03:38:08.654Z,87.70
2018-02-16T03:39:08.633Z,87.79
2018-02-16T03:40:08.601Z,87.70
2018-02-16T03:41:08.592Z,87.70
2018-02-16T03:42:08.596Z,87.88
2018-02-16T03:43:08.567Z,87.84
2018-02-16T03:44:08.572Z,87.88
2018-02-16T03:45:08.535Z,87.79
2018-02-16T03:46:08.535Z,87.79
2018-02-16T03:47:08.524Z,87.79
2018-02-16T03:48:08.498Z,87.79
2018-02-16T03:49:08.532Z,87.98
2018-02-16T03:50:08.475Z,87.98
2018-02-16T03:51:08.457Z,87.88
2018-02-16T03:52:08.452Z,87.79
2018-02-16T03:53:08.426Z,88.07
2018-02-16T03:54:08.427Z,88.07
2018-02-16T03:55:08.430Z,87.98
2018-02-16T03:56:08.392Z,87.79
2018-02-16T03:57:08.388Z,87.88
2018-02-16T03:58:08.372Z,87.60
2018-02-16T03:59:44.161Z,87.60
2018-02-16T04:00:10.150Z,87.51
2018-02-16T04:01:08.324Z,87.32
2018-02-16T04:02:08.331Z,87.70
2018-02-16T04:03:08.303Z,87.41
2018-02-16T04:04:08.284Z,87.41
2018-02-16T04:05:08.271Z,87.60
2018-02-16T04:06:08.263Z,87.41
2018-02-16T04:07:08.261Z,87.60
2018-02-16T04:08:08.261Z,87.51
2018-02-16T04:09:08.223Z,87.51
2018-02-16T04:10:08.219Z,87.98
2018-02-16T04:11:08.192Z,87.88
2018-02-16T04:12:08.181Z,87.70
2018-02-16T04:13:08.177Z,87.79
2018-02-16T04:14:08.189Z,87.79
2018-02-16T04:15:08.151Z,87.70
2018-02-16T04:16:08.133Z,87.70
2018-02-16T04:17:08.114Z,87.51
2018-02-16T04:18:08.102Z,87.37
2018-02-16T04:19:08.092Z,87.37
2018-02-16T04:20:08.093Z,87.55
2018-02-16T04:21:08.101Z,87.46
2018-02-16T04:22:08.077Z,87.46
2018-02-16T04:23:08.037Z,87.37
2018-02-16T04:24:08.025Z,87.46
2018-02-16T04:25:08.007Z,87.08
2018-02-16T04:26:08.009Z,87.08
2018-02-16T04:27:07.987Z,87.08
2018-02-16T04:28:07.973Z,87.18
2018-02-16T04:29:07.959Z,87.18
2018-02-16T04:30:07.946Z,87.27
2018-02-16T04:31:07.931Z,87.27
2018-02-16T04:32:07.945Z,87.18
2018-02-16T04:33:07.902Z,87.46
2018-02-16T04:34:07.897Z,87.37
2018-02-16T04:35:07.897Z,87.41
2018-02-16T04:36:07.886Z,87.27
2018-02-16T04:37:07.857Z,87.65
2018-02-16T04:38:07.844Z,87.55
2018-02-16T04:39:07.825Z,86.90
2018-02-16T04:40:07.828Z,86.99
2018-02-16T04:41:07.817Z,87.37
2018-02-16T04:42:07.791Z,86.80
2018-02-16T04:43:07.775Z,86.71
2018-02-16T04:44:07.779Z,86.61
2018-02-16T04:45:07.756Z,86.99
2018-02-16T04:46:07.747Z,86.42
2018-02-16T04:47:07.724Z,86.99
2018-02-16T04:48:07.720Z,86.42
2018-02-16T04:49:07.714Z,86.80
2018-02-16T04:50:07.678Z,86.80
2018-02-16T04:51:07.667Z,86.99
2018-02-16T04:52:07.662Z,86.80
2018-02-16T04:53:07.642Z,87.08
2018-02-16T04:54:07.631Z,86.90
2018-02-16T04:55:07.618Z,86.99
2018-02-16T04:56:07.618Z,86.99
2018-02-16T04:57:07.610Z,86.90
2018-02-16T04:58:07.577Z,87.18
2018-02-16T04:59:07.562Z,87.18
2018-02-16T05:00:07.550Z,86.99
2018-02-16T05:01:07.542Z,87.18
2018-02-16T05:02:07.542Z,86.99
2018-02-16T05:03:07.511Z,87.27
2018-02-16T05:04:07.502Z,86.90
2018-02-16T05:05:07.487Z,86.61
2018-02-16T05:06:07.502Z,86.99
2018-02-16T05:07:07.465Z,87.08
2018-02-16T05:08:07.444Z,86.99
2018-02-16T05:09:07.444Z,86.99
2018-02-16T05:10:07.449Z,86.90
2018-02-16T05:11:07.417Z,86.42
2018-02-16T05:12:07.395Z,86.42
2018-02-16T05:13:07.388Z,86.33
2018-02-16T05:14:07.367Z,86.52
2018-02-16T05:15:07.350Z,86.33
2018-02-16T05:16:07.362Z,86.23
2018-02-16T05:17:07.357Z,86.52
2018-02-16T05:18:07.334Z,86.52
2018-02-16T05:19:07.302Z,86.42
2018-02-16T05:20:07.293Z,86.90
2018-02-16T05:21:07.280Z,86.90
2018-02-16T05:22:07.293Z,86.71
2018-02-16T05:23:07.247Z,86.52
2018-02-16T05:24:07.234Z,86.61
2018-02-16T05:25:07.218Z,86.42
2018-02-16T05:26:07.217Z,86.23
2018-02-16T05:27:07.196Z,86.61
2018-02-16T05:28:07.213Z,86.23
2018-02-16T05:29:07.167Z,86.23
2018-02-16T05:30:07.152Z,86.14
2018-02-16T05:31:07.163Z,85.95
2018-02-16T05:32:07.148Z,86.14
2018-02-16T05:33:07.118Z,85.76
2018-02-16T05:34:07.104Z,85.85
2018-02-16T05:35:07.086Z,85.76
2018-02-16T05:36:07.097Z,86.04
2018-02-16T05:37:07.090Z,85.95
2018-02-16T05:38:07.052Z,85.85
2018-02-16T05:39:07.035Z,86.04
2018-02-16T05:40:07.027Z,86.14
2018-02-16T05:41:07.009Z,86.23
2018-02-16T05:42:07.014Z,86.52
2018-02-16T05:43:07.009Z,86.42
2018-02-16T05:44:06.969Z,85.57
2018-02-16T05:45:06.972Z,86.14
2018-02-16T05:46:06.967Z,85.76
2018-02-16T05:47:06.940Z,85.85
2018-02-16T05:48:06.913Z,85.66
2018-02-16T05:49:06.903Z,85.66
2018-02-16T05:50:06.908Z,85.85
2018-02-16T05:51:06.882Z,85.57
2018-02-16T05:52:06.869Z,85.57
2018-02-16T05:53:06.852Z,85.57
2018-02-16T05:54:06.854Z,85.85
2018-02-16T05:55:06.821Z,86.04
2018-02-16T05:56:06.807Z,85.85
2018-02-16T05:57:06.806Z,85.95
2018-02-16T05:58:06.816Z,85.38
2018-02-16T05:59:06.769Z,85.38
2018-02-16T06:00:06.757Z,85.28
2018-02-16T06:01:06.745Z,85.38
2018-02-16T06:02:06.730Z,85.19
2018-02-16T06:03:06.743Z,85.47
2018-02-16T06:04:06.716Z,85.57
2018-02-16T06:05:06.700Z,85.28
2018-02-16T06:06:06.678Z,85.38
2018-02-16T06:07:06.662Z,85.57
2018-02-16T06:08:06.650Z,85.47
2018-02-16T06:09:06.644Z,85.57
2018-02-16T06:10:06.632Z,85.57
2018-02-16T06:11:06.613Z,85.57
2018-02-16T06:12:06.609Z,85.47
2018-02-16T06:13:06.583Z,85.38
2018-02-16T06:14:06.572Z,85.38
2018-02-16T06:15:06.552Z,85.10
2018-02-16T06:16:06.579Z,85.10
2018-02-16T06:17:06.556Z,84.81
2018-02-16T06:18:06.526Z,84.81
2018-02-16T06:19:06.523Z,85.00
2018-02-16T06:20:06.488Z,84.81
2018-02-16T06:21:06.482Z,84.81
2018-02-16T06:22:06.467Z,84.81
2018-02-16T06:23:06.448Z,84.81
2018-02-16T06:24:06.456Z,85.38
2018-02-16T06:25:06.421Z,84.91
2018-02-16T06:26:06.432Z,85.28
2018-02-16T06:27:06.396Z,84.81
2018-02-16T06:28:06.383Z,85.28
2018-02-16T06:29:06.371Z,85.19
2018-02-16T06:30:06.389Z,85.28
2018-02-16T06:31:06.360Z,85.57
2018-02-16T06:32:06.331Z,85.19
2018-02-16T06:33:06.321Z,85.38
2018-02-16T06:34:06.306Z,85.38
2018-02-16T06:35:06.387Z,85.57
2018-02-16T06:36:06.280Z,85.57
2018-02-16T06:37:06.265Z,85.57
2018-02-16T06:38:06.251Z,85.57
2018-02-16T06:39:06.256Z,85.38
2018-02-16T06:40:06.222Z,85.95
2018-02-16T06:41:06.210Z,85.28
2018-02-16T06:42:06.198Z,85.76
2018-02-16T06:43:06.180Z,85.66
2018-02-16T06:44:06.189Z,85.10
2018-02-16T06:45:06.181Z,85.38
2018-02-16T06:46:06.176Z,85.28
2018-02-16T06:47:06.135Z,85.38
2018-02-16T06:48:06.113Z,85.19
2018-02-16T06:49:06.107Z,85.19
2018-02-16T06:50:06.101Z,85.10
2018-02-16T06:51:06.108Z,85.19
2018-02-16T06:52:06.069Z,85.19
2018-02-16T06:53:06.063Z,85.38
2018-02-16T06:54:06.047Z,85.47
2018-02-16T06:55:06.034Z,85.00
2018-02-16T06:56:06.015Z,85.28
2018-02-16T06:57:06.030Z,85.47
2018-02-16T06:58:06.000Z,85.28
2018-02-16T06:59:05.970Z,85.28
2018-02-16T07:00:05.972Z,85.19
2018-02-16T07:01:05.950Z,85.19
2018-02-16T07:02:05.933Z,85.00
2018-02-16T07:03:05.918Z,85.00
2018-02-16T07:04:05.903Z,85.38
2018-02-16T07:05:05.895Z,84.53
2018-02-16T07:06:05.900Z,84.63
2018-02-16T07:07:05.878Z,84.81
2018-02-16T07:08:05.850Z,84.72
2018-02-16T07:09:05.839Z,84.63
2018-02-16T07:10:05.828Z,85.00
2018-02-16T07:11:05.847Z,84.91
2018-02-16T07:12:05.824Z,85.19
2018-02-16T07:13:05.786Z,85.10
2018-02-16T07:14:05.772Z,84.72
2018-02-16T07:15:05.761Z,85.00
2018-02-16T07:16:05.747Z,84.53
2018-02-16T07:17:05.750Z,84.91
2018-02-16T07:18:05.719Z,85.10
2018-02-16T07:19:05.712Z,84.91
2018-02-16T07:20:05.703Z,84.72
2018-02-16T07:21:05.684Z,84.63
2018-02-16T07:22:05.667Z,84.53
2018-02-16T07:23:05.706Z,84.44
2018-02-16T07:24:05.648Z,84.25
2018-02-16T07:25:05.682Z,84.63
2018-02-16T07:26:05.651Z,84.44
2018-02-16T07:27:05.648Z,84.72
2018-02-16T07:28:05.587Z,84.63
2018-02-16T07:29:05.584Z,84.44
2018-02-16T07:30:05.606Z,84.25
2018-02-16T07:31:05.613Z,84.44
2018-02-16T07:32:05.562Z,84.34
2018-02-16T07:33:05.526Z,84.34
2018-02-16T07:34:05.515Z,84.34
2018-02-16T07:35:05.500Z,83.49
2018-02-16T07:36:05.493Z,83.87
2018-02-16T07:37:05.472Z,83.53
2018-02-16T07:38:05.461Z,83.59
2018-02-16T07:39:05.460Z,83.68
2018-02-16T07:40:05.433Z,83.87
2018-02-16T07:41:05.429Z,83.68
2018-02-16T07:42:05.416Z,83.63
2018-02-16T07:43:05.411Z,83.34
2018-02-16T07:44:05.387Z,82.87
2018-02-16T07:45:05.373Z,82.97
2018-02-16T07:46:05.367Z,83.06
2018-02-16T07:47:05.353Z,83.06
2018-02-16T07:48:05.336Z,83.15
2018-02-16T07:49:05.320Z,83.06
2018-02-16T07:50:05.309Z,83.06
2018-02-16T07:51:05.314Z,82.40
2018-02-16T07:52:05.305Z,82.68
2018-02-16T07:53:05.271Z,82.59
2018-02-16T07:54:05.261Z,82.68
2018-02-16T07:55:05.244Z,82.40
2018-02-16T07:56:05.239Z,82.40
2018-02-16T07:57:05.249Z,81.93
2018-02-16T07:58:05.215Z,81.83
2018-02-16T07:59:05.206Z,81.93
2018-02-16T08:00:05.197Z,82.12
2018-02-16T08:01:05.178Z,81.74
2018-02-16T08:02:05.164Z,81.93
2018-02-16T08:03:05.184Z,81.74
2018-02-16T08:04:05.156Z,81.83
2018-02-16T08:05:05.125Z,82.02
2018-02-16T08:06:05.115Z,81.36
2018-02-16T08:07:05.117Z,81.45
2018-02-16T08:08:05.086Z,81.74
2018-02-16T08:09:05.084Z,80.98
2018-02-16T08:10:05.060Z,81.36
2018-02-16T08:11:05.051Z,81.36
2018-02-16T08:12:05.054Z,81.36
2018-02-16T08:13:05.028Z,80.98
2018-02-16T08:14:05.018Z,80.51
2018-02-16T08:15:05.005Z,80.51
2018-02-16T08:16:04.989Z,80.69
2018-02-16T08:17:04.990Z,80.79
2018-02-16T08:18:04.968Z,80.69
2018-02-16T08:19:04.952Z,80.60
2018-02-16T08:20:04.941Z,80.22
2018-02-16T08:21:04.936Z,80.13
2018-02-16T08:22:04.915Z,79.75
2018-02-16T08:23:04.906Z,79.85
2018-02-16T08:24:04.925Z,79.75
2018-02-16T08:25:04.906Z,79.75
2018-02-16T08:26:04.889Z,79.79
2018-02-16T08:27:04.860Z,79.69
2018-02-16T08:28:04.851Z,79.88
2018-02-16T08:29:04.837Z,79.32
2018-02-16T08:30:04.829Z,79.22
2018-02-16T08:31:04.829Z,79.50
2018-02-16T08:32:04.841Z,79.69
2018-02-16T08:33:04.816Z,78.94
2018-02-16T08:34:04.810Z,79.50
2018-02-16T08:35:04.764Z,79.03
2018-02-16T08:36:04.756Z,79.41
2018-02-16T08:37:04.745Z,79.41
2018-02-16T08:38:04.740Z,79.32
2018-02-16T08:39:04.728Z,79.60
2018-02-16T08:40:04.712Z,79.50
2018-02-16T08:41:04.703Z,79.32
2018-02-16T08:42:04.695Z,79.32
2018-02-16T08:43:04.674Z,79.50
2018-02-16T08:44:04.665Z,78.75
2018-02-16T08:45:04.681Z,78.56
2018-02-16T08:46:04.639Z,78.37
2018-02-16T08:47:04.645Z,78.79
2018-02-16T08:48:04.635Z,78.79
2018-02-16T08:49:04.610Z,78.88
2018-02-16T08:50:04.603Z,78.22
2018-02-16T08:51:04.592Z,78.22
2018-02-16T08:52:04.578Z,78.03
2018-02-16T08:53:04.568Z,78.59
2018-02-16T08:54:04.570Z,78.64
2018-02-16T08:55:04.541Z,78.45
2018-02-16T08:56:04.554Z,79.21
2018-02-16T08:57:04.547Z,80.34
2018-02-16T08:58:04.526Z,83.75
2018-02-16T08:59:04.526Z,81.29
2018-02-16T09:00:04.527Z,81.86
2018-02-16T09:01:04.496Z,83.09
2018-02-16T09:02:04.492Z,82.05
2018-02-16T09:03:04.462Z,83.18
2018-02-16T09:04:04.454Z,86.98
2018-02-16T09:05:04.446Z,88.82
2018-02-16T09:06:04.439Z,86.83
2018-02-16T09:07:04.440Z,85.50
2018-02-16T09:08:04.459Z,84.27
2018-02-16T09:09:04.413Z,83.74
2018-02-16T09:10:04.637Z,89.34
2018-02-16T09:11:04.403Z,91.90
2018-02-16T09:12:04.410Z,94.32
2018-02-16T09:13:04.382Z,97.36
2018-02-16T09:14:04.398Z,92.33
2018-02-16T09:15:04.359Z,99.99
2018-02-16T09:16:04.356Z,95.41
2018-02-16T09:17:04.350Z,99.99
2018-02-16T09:18:04.347Z,99.35
2018-02-16T09:19:04.337Z,99.99
2018-02-16T09:20:04.354Z,99.99
2018-02-16T09:21:04.357Z,94.27
2018-02-16T09:22:04.322Z,99.99
2018-02-16T09:23:04.305Z,99.63
2018-02-16T09:24:04.293Z,97.69
2018-02-16T09:25:04.299Z,99.99
2018-02-16T09:26:04.284Z,96.17
2018-02-16T09:27:04.303Z,98.64
2018-02-16T09:28:04.299Z,95.84
2018-02-16T09:29:04.296Z,95.84
2018-02-16T09:30:04.256Z,94.84
2018-02-16T09:31:04.282Z,98.54
2018-02-16T09:32:04.261Z,96.64
2018-02-16T09:33:04.252Z,97.12
2018-02-16T09:34:04.282Z,96.26
2018-02-16T09:35:04.259Z,94.84
2018-02-16T09:36:04.249Z,99.99
2018-02-16T09:37:04.225Z,99.99
2018-02-16T09:38:04.210Z,99.99
2018-02-16T09:39:05.200Z,99.21
2018-02-16T09:40:04.230Z,99.11
2018-02-16T09:41:04.242Z,99.99
2018-02-16T09:42:04.193Z,94.65
2018-02-16T09:43:04.194Z,99.99
2018-02-16T09:44:04.203Z,97.88
2018-02-16T09:45:04.221Z,97.88
2018-02-16T09:46:04.231Z,97.12
2018-02-16T09:47:04.147Z,97.22
2018-02-16T09:48:04.217Z,96.74
2018-02-16T09:49:04.171Z,97.88
2018-02-16T09:50:04.146Z,99.49
2018-02-16T09:51:04.195Z,97.69
2018-02-16T09:52:04.149Z,95.08
2018-02-16T09:53:04.159Z,99.99
2018-02-16T09:54:04.150Z,97.78
2018-02-16T09:55:04.113Z,96.08
2018-02-16T09:56:04.204Z,95.98
2018-02-16T09:57:04.089Z,93.13
2018-02-16T09:58:04.099Z,95.31
2018-02-16T09:59:04.125Z,93.51
2018-02-16T10:00:04.076Z,96.26
2018-02-16T10:01:04.109Z,93.04
2018-02-16T10:02:04.049Z,93.70
2018-02-16T10:03:04.049Z,92.09
2018-02-16T10:04:04.041Z,93.70
2018-02-16T10:05:04.044Z,95.22
2018-02-16T10:06:04.047Z,94.84
2018-02-16T10:07:04.052Z,94.13
2018-02-16T10:08:04.014Z,95.27
2018-02-16T10:09:04.005Z,94.79
2018-02-16T10:10:04.004Z,93.18
2018-02-16T10:11:04.020Z,94.65
2018-02-16T10:12:04.005Z,95.08
2018-02-16T10:13:04.014Z,99.99
2018-02-16T10:14:03.999Z,91.52
2018-02-16T10:15:04.021Z,90.57
2018-02-16T10:16:04.006Z,93.41
2018-02-16T10:17:03.996Z,90.19
2018-02-16T10:18:03.950Z,89.53
2018-02-16T10:19:03.947Z,95.31
2018-02-16T10:20:03.955Z,89.53
2018-02-16T10:21:03.989Z,90.28
2018-02-16T10:22:03.997Z,88.20
2018-02-16T10:23:03.931Z,87.91
2018-02-16T10:24:03.945Z,89.62
2018-02-16T10:25:03.913Z,89.14
2018-02-16T10:26:03.910Z,91.04
2018-02-16T10:27:03.913Z,94.93
2018-02-16T10:28:03.897Z,93.89
2018-02-16T10:29:03.890Z,94.56
2018-02-16T10:30:03.940Z,88.48
2018-02-16T10:31:03.890Z,98.07
2018-02-16T10:32:03.862Z,87.72
2018-02-16T10:33:03.849Z,90.71
2018-02-16T10:34:03.842Z,98.07
2018-02-16T10:35:03.847Z,88.71
2018-02-16T10:36:03.859Z,92.13
2018-02-16T10:37:03.828Z,94.23
2018-02-16T10:38:03.836Z,91.19
2018-02-16T10:39:03.821Z,93.89
2018-02-16T10:40:03.812Z,99.99
2018-02-16T10:41:03.803Z,91.99
2018-02-16T10:42:03.792Z,84.82
2018-02-16T10:43:03.804Z,87.95
2018-02-16T10:44:03.923Z,91.09
2018-02-16T10:45:03.784Z,92.23
2018-02-16T10:46:03.777Z,90.52
2018-02-16T10:47:03.758Z,90.99
2018-02-16T10:48:03.765Z,97.64
2018-02-16T10:49:03.748Z,94.42
2018-02-16T10:50:03.755Z,93.51
2018-02-16T10:51:03.751Z,87.29
2018-02-16T10:52:03.748Z,91.28
2018-02-16T10:53:03.750Z,89.86
2018-02-16T10:54:03.722Z,92.71
2018-02-16T10:55:03.716Z,94.51
2018-02-16T10:56:03.724Z,96.41
2018-02-16T10:57:03.703Z,93.08
2018-02-16T10:58:03.703Z,97.74
2018-02-16T10:59:03.687Z,93.08
2018-02-16T11:00:03.730Z,94.03
2018-02-16T11:01:03.703Z,90.42
2018-02-16T11:02:03.684Z,87.62
2018-02-16T11:03:03.667Z,96.36
2018-02-16T11:04:03.664Z,96.08
2018-02-16T11:05:03.658Z,91.23
2018-02-16T11:06:03.650Z,98.45
2018-02-16T11:07:03.653Z,99.99
2018-02-16T11:08:03.648Z,99.99
2018-02-16T11:09:03.640Z,91.61
2018-02-16T11:10:03.635Z,94.37
2018-02-16T11:11:03.658Z,99.99
2018-02-16T11:12:03.620Z,99.99
2018-02-16T11:13:03.624Z,90.37
2018-02-16T11:14:03.614Z,99.99
2018-02-16T11:15:03.609Z,96.55
2018-02-16T11:16:03.606Z,99.99
2018-02-16T11:17:03.634Z,99.99
2018-02-16T11:18:03.620Z,86.47
2018-02-16T11:19:03.613Z,99.99
2018-02-16T11:20:03.665Z,99.21
2018-02-16T11:21:03.591Z,87.05
2018-02-16T11:22:03.586Z,86.67
2018-02-16T11:23:03.572Z,85.81
2018-02-16T11:24:03.565Z,95.51
2018-02-16T11:25:03.563Z,97.60
2018-02-16T11:26:03.560Z,87.62
2018-02-16T11:27:03.551Z,99.99
2018-02-16T11:28:03.545Z,99.11
2018-02-16T11:29:03.546Z,99.59
2018-02-16T11:30:03.530Z,99.99
2018-02-16T11:31:03.540Z,96.65
2018-02-16T11:32:03.540Z,90.09
2018-02-16T11:33:03.522Z,98.55
2018-02-16T11:34:03.518Z,99.99
2018-02-16T11:35:03.510Z,99.99
2018-02-16T11:36:03.507Z,99.99
2018-02-16T11:37:03.502Z,99.99
2018-02-16T11:38:03.503Z,92.75
2018-02-16T11:39:03.494Z,99.99
2018-02-16T11:40:03.500Z,90.00
2018-02-16T11:41:03.486Z,99.99
2018-02-16T11:42:03.536Z,93.04
2018-02-16T11:43:03.477Z,99.99
2018-02-16T11:44:03.498Z,87.71
2018-02-16T11:45:03.460Z,97.12
2018-02-16T11:46:03.460Z,91.89
2018-02-16T11:47:03.455Z,99.99
2018-02-16T11:48:03.490Z,92.56
2018-02-16T11:49:03.436Z,99.99
2018-02-16T11:50:03.433Z,96.26
2018-02-16T11:51:03.432Z,99.99
2018-02-16T11:52:03.425Z,99.99
2018-02-16T11:53:03.437Z,99.99
2018-02-16T11:54:03.441Z,98.64
2018-02-16T11:55:03.464Z,97.69
2018-02-16T11:56:03.404Z,99.99
2018-02-16T11:57:03.467Z,99.99
2018-02-16T11:58:03.400Z,99.99
2018-02-16T11:59:03.423Z,99.02
2018-02-16T12:00:03.387Z,91.71
2018-02-16T12:01:03.414Z,99.99
2018-02-16T12:02:03.388Z,94.51
2018-02-16T12:03:03.402Z,94.22
2018-02-16T12:04:03.402Z,99.99
2018-02-16T12:05:03.365Z,99.99
2018-02-16T12:06:03.378Z,99.99
2018-02-16T12:07:04.255Z,97.64
2018-02-16T12:08:03.351Z,99.99
2018-02-16T12:09:03.355Z,99.99
2018-02-16T12:10:03.343Z,99.99
2018-02-16T12:11:03.328Z,99.99
2018-02-16T12:12:03.330Z,99.88
2018-02-16T12:13:03.321Z,97.03
2018-02-16T12:14:03.314Z,99.99
2018-02-16T12:15:04.234Z,99.99
2018-02-16T12:16:04.245Z,99.99
2018-02-16T12:17:03.303Z,99.99
2018-02-16T12:18:03.298Z,99.99
2018-02-16T12:19:03.293Z,94.56
2018-02-16T12:20:03.297Z,99.99
2018-02-16T12:21:03.301Z,99.99
2018-02-16T12:22:03.315Z,99.99
2018-02-16T12:23:03.285Z,99.99
2018-02-16T12:24:03.276Z,99.99
2018-02-16T12:25:03.291Z,99.99
2018-02-16T12:26:03.276Z,99.99
2018-02-16T12:27:03.270Z,99.99
2018-02-16T12:28:03.270Z,95.98
2018-02-16T12:29:03.263Z,99.99
2018-02-16T12:30:03.283Z,97.31
2018-02-16T12:31:03.283Z,99.99
2018-02-16T12:32:03.276Z,99.99
2018-02-16T12:33:03.282Z,99.99
2018-02-16T12:34:03.260Z,99.12
2018-02-16T12:35:03.289Z,99.99
2018-02-16T12:36:03.248Z,96.41
2018-02-16T12:37:03.246Z,99.99
2018-02-16T12:38:03.245Z,99.99
2018-02-16T12:39:03.746Z,99.99
2018-02-16T12:40:03.242Z,99.99
2018-02-16T12:41:03.255Z,99.99
2018-02-16T12:42:03.262Z,99.99
2018-02-16T12:43:03.250Z,96.74
2018-02-16T12:44:03.246Z,99.99
2018-02-16T12:45:03.253Z,99.98
2018-02-16T12:46:03.254Z,99.99
2018-02-16T12:47:04.604Z,96.41
2018-02-16T12:48:03.263Z,99.99
2018-02-16T12:49:05.161Z,96.89
2018-02-16T12:50:03.206Z,99.99
2018-02-16T12:51:03.300Z,99.99
2018-02-16T12:52:03.224Z,98.13